L'Europe — FKJB — position and weather

sailwx.info

Track history (hours):
 
Tides and Currents Weather Stations Pressure Air Temp Water Temp Dewpoint Dewpoint Depression Visibility Wind Speed Wind Dir Waves Ship Positions

Oceanographic research ship L'Europe (France)

Detailed information on ship capabilities available from University of Delaware's Ocean Information Center.

Last reported at 2018-May-20 17:30 UTC. Time now 2018-May-20 17:42 UTC.
Position N 43°01' E 009°16'.

Length 30 m; beam 11 m.

Type: . MMSI: 227403000.

Date/timePositionNaut miles runAvg speedWind from/ knotsBaromVisibWave heightAir tempDewpointWater temp
2018-May-20 17:30N 43°01' E 009°16'510.5
2018-May-20 17:00N 43°01' E 009°23'4 9.0
2018-May-20 16:30N 42°59' E 009°29'510.1
2018-May-20 16:00N 42°54' E 009°29'5 9.7
2018-May-20 15:30N 42°49' E 009°30'4 8.9
2018-May-20 15:00N 42°45' E 009°29'2 0.1
2018-May-19 16:12N 42°42' E 009°28'2 8.9
2018-May-19 16:00N 42°44' E 009°29'5 9.4
2018-May-19 15:30N 42°49' E 009°30'2 3.8
2018-May-19 15:00N 42°50' E 009°31'1 2.9
2018-May-19 14:30N 42°52' E 009°31'2 3.0
2018-May-19 14:00N 42°53' E 009°31'0 0.4
2018-May-19 13:30N 42°53' E 009°32'1 3.0
2018-May-19 13:00N 42°52' E 009°31'1 2.9
2018-May-19 12:30N 42°51' E 009°31'1 2.6
2018-May-19 12:00N 42°49' E 009°31'2 3.1
2018-May-19 11:30N 42°48' E 009°31'1 1.5
2018-May-19 11:00N 42°48' E 009°32'2 3.0
2018-May-19 10:30N 42°50' E 009°32'8 3.4
2018-May-19 08:01N 42°58' E 009°33'0 4.5
2018-May-19 08:00N 42°58' E 009°33'5 9.1
2018-May-19 07:29N 42°54' E 009°32'5 9.4
2018-May-19 07:00N 42°49' E 009°31'5 9.1
2018-May-19 06:30N 42°45' E 009°29'2 0.1
2018-May-18 16:33N 42°43' E 009°28'410.0
2018-May-18 16:10N 42°47' E 009°30'210.3
2018-May-18 16:00N 42°48' E 009°31'3 4.3
2018-May-18 15:23N 42°51' E 009°31'1 3.5
2018-May-18 14:59N 42°52' E 009°31'1 1.6
2018-May-18 14:30N 42°52' E 009°31'6 1.6
2018-May-18 10:58N 42°57' E 009°33'1 2.4
2018-May-18 10:29N 42°56' E 009°32'3 2.8
2018-May-18 09:18N 42°53' E 009°31'1 3.0
2018-May-18 08:52N 42°51' E 009°31'1 2.4
2018-May-18 08:17N 42°50' E 009°32'158 4.1
2018-May-16 17:25N 43°05' E 005°56'3 5.4
2018-May-16 16:55N 43°06' E 005°53'0 0.0
2018-May-16 16:28N 43°06' E 005°53'0 0.0
2018-May-16 15:48N 43°06' E 005°53'0 0.0
2018-May-16 15:30N 43°06' E 005°53'0 0.0
2018-May-16 15:00N 43°06' E 005°53'0 0.0
2018-May-16 14:30N 43°06' E 005°53'0 0.0
2018-May-16 14:00N 43°06' E 005°53'0 0.0
2018-May-16 13:30N 43°06' E 005°53'0 0.0
2018-May-16 12:59N 43°06' E 005°53'0 0.0
2018-May-16 12:29N 43°06' E 005°53'0 0.0
2018-May-16 11:59N 43°06' E 005°53'0 0.0
2018-May-16 11:22N 43°06' E 005°53'0 0.0
2018-May-16 10:58N 43°06' E 005°53'0 0.0
2018-May-16 10:25N 43°06' E 005°53'0 0.0
2018-May-16 09:58N 43°06' E 005°53'0 0.0
2018-May-16 09:28N 43°06' E 005°53'0 0.0
2018-May-16 08:57N 43°06' E 005°53'0 0.0
2018-May-16 08:30N 43°06' E 005°53'0 0.0
2018-May-16 08:00N 43°06' E 005°53'0 0.0
2018-May-16 07:30N 43°06' E 005°53'0 0.0
2018-May-16 06:59N 43°06' E 005°53'0 0.0
2018-May-16 06:26N 43°06' E 005°53'0 0.0
2018-May-16 05:56N 43°06' E 005°53'0 0.0
2018-May-16 05:29N 43°06' E 005°53'0 0.0
2018-May-16 04:50N 43°06' E 005°53'0 0.0
2018-May-16 04:25N 43°06' E 005°53'0 0.0
2018-May-16 03:56N 43°06' E 005°53'0 0.0
2018-May-16 03:25N 43°06' E 005°53'0 0.0
2018-May-16 02:58N 43°06' E 005°53'0 0.0
2018-May-16 02:28N 43°06' E 005°53'0 0.0
2018-May-16 02:00N 43°06' E 005°53'0 0.0
2018-May-16 01:27N 43°06' E 005°53'0 0.0
2018-May-16 01:00N 43°06' E 005°53'0 0.0
2018-May-16 00:30N 43°06' E 005°53'0 0.0
2018-May-15 23:56N 43°06' E 005°53'0 0.0
2018-May-15 23:29N 43°06' E 005°53'0 0.0
2018-May-15 22:59N 43°06' E 005°53'0 0.0
2018-May-15 22:26N 43°06' E 005°53'0 0.0
2018-May-15 21:59N 43°06' E 005°53'0 0.0
2018-May-15 21:29N 43°06' E 005°53'0 0.0
2018-May-15 20:46N 43°06' E 005°53'0 0.0
2018-May-15 20:28N 43°06' E 005°53'0 0.0
2018-May-15 19:52N 43°06' E 005°53'0 0.0
2018-May-15 19:25N 43°06' E 005°53'0 0.0
2018-May-15 19:00N 43°06' E 005°53'0 0.0
2018-May-15 18:27N 43°06' E 005°53'0 0.0
2018-May-15 18:00N 43°06' E 005°53'0 0.0
2018-May-15 17:27N 43°06' E 005°53'0 0.0
2018-May-15 16:59N 43°06' E 005°53'0 0.0
2018-May-15 16:29N 43°06' E 005°53'0 0.0
2018-May-15 15:56N 43°06' E 005°53'0 0.0
2018-May-15 15:29N 43°06' E 005°53'0 0.0
2018-May-15 14:56N 43°06' E 005°53'0 0.0
2018-May-15 14:25N 43°06' E 005°53'0 0.0
2018-May-15 13:58N 43°06' E 005°53'0 0.0
2018-May-15 13:25N 43°06' E 005°53'0 0.0
2018-May-15 12:55N 43°06' E 005°53'0 0.0
2018-May-15 12:30N 43°06' E 005°53'0 0.0
2018-May-15 11:57N 43°06' E 005°53'0 0.0
2018-May-15 11:30N 43°06' E 005°53'0 0.0
2018-May-15 11:00N 43°06' E 005°53'0 0.0
2018-May-15 10:30N 43°06' E 005°53'0 0.0
2018-May-15 09:59N 43°06' E 005°53'0 0.0
2018-May-15 09:29N 43°06' E 005°53'0 0.0
2018-May-15 08:59N 43°06' E 005°53'0 0.0
2018-May-15 08:26N 43°06' E 005°53'0 0.0
2018-May-15 07:59N 43°06' E 005°53'0 0.0
2018-May-15 07:28N 43°06' E 005°53'0 0.0
2018-May-15 06:58N 43°06' E 005°53'0 0.0
2018-May-15 06:28N 43°06' E 005°53'0 0.0
2018-May-15 05:52N 43°06' E 005°53'0 0.0
2018-May-15 05:28N 43°06' E 005°53'0 0.0
2018-May-15 05:00N 43°06' E 005°53'0 0.0
2018-May-15 04:28N 43°06' E 005°53'0 0.0
2018-May-15 03:57N 43°06' E 005°53'0 0.0
2018-May-15 03:30N 43°06' E 005°53'0 0.0
2018-May-15 02:59N 43°06' E 005°53'0 0.0
2018-May-15 02:29N 43°06' E 005°53'0 0.0
2018-May-15 01:56N 43°06' E 005°53'0 0.0
2018-May-15 01:29N 43°06' E 005°53'0 0.0
2018-May-15 00:55N 43°06' E 005°53'0 0.0
2018-May-15 00:28N 43°06' E 005°53'0 0.0
2018-May-14 23:55N 43°06' E 005°53'0 0.0
2018-May-14 23:28N 43°06' E 005°53'0 0.0
2018-May-14 22:58N 43°06' E 005°53'0 0.0
2018-May-14 22:30N 43°06' E 005°53'0 0.0
2018-May-14 22:00N 43°06' E 005°53'0 0.0
2018-May-14 21:30N 43°06' E 005°53'0 0.0
2018-May-14 21:00N 43°06' E 005°53'0 0.0
2018-May-14 20:29N 43°06' E 005°53'0 0.0
2018-May-14 19:53N 43°06' E 005°53'0 0.0
2018-May-14 19:29N 43°06' E 005°53'0 0.0
2018-May-14 18:56N 43°06' E 005°53'0 0.0
2018-May-14 18:29N 43°06' E 005°53'0 0.0
2018-May-14 17:57N 43°06' E 005°53'0 0.0
2018-May-14 17:25N 43°06' E 005°53'0 0.0
2018-May-14 16:58N 43°06' E 005°53'0 0.0
2018-May-14 16:28N 43°06' E 005°53'0 0.0
2018-May-14 15:58N 43°06' E 005°53'0 0.0
2018-May-14 15:27N 43°06' E 005°53'0 0.0
2018-May-14 14:57N 43°06' E 005°53'0 0.0
2018-May-14 14:30N 43°06' E 005°53'0 0.0
2018-May-14 13:57N 43°06' E 005°53'0 0.0
2018-May-14 13:30N 43°06' E 005°53'0 0.0
2018-May-14 12:56N 43°06' E 005°53'0 0.0
2018-May-14 12:26N 43°06' E 005°53'0 0.0
2018-May-14 11:50N 43°06' E 005°53'0 0.0
2018-May-14 11:26N 43°06' E 005°53'0 0.0
2018-May-14 10:49N 43°06' E 005°53'0 0.0
2018-May-14 10:28N 43°06' E 005°53'0 0.0
2018-May-14 09:49N 43°06' E 005°53'0 0.0
2018-May-14 09:25N 43°06' E 005°53'0 0.0
2018-May-14 08:55N 43°06' E 005°53'0 0.0
2018-May-14 08:30N 43°06' E 005°53'0 0.0
2018-May-14 08:00N 43°06' E 005°53'0 0.0
2018-May-14 07:30N 43°06' E 005°53'0 0.0
2018-May-14 07:00N 43°06' E 005°53'0 0.0
2018-May-14 06:26N 43°06' E 005°53'0 0.0
2018-May-14 05:59N 43°06' E 005°53'0 0.0
2018-May-14 05:29N 43°06' E 005°53'0 0.0
2018-May-14 04:56N 43°06' E 005°53'0 0.0
2018-May-14 04:29N 43°06' E 005°53'0 0.0
2018-May-14 03:58N 43°06' E 005°53'0 0.0
2018-May-14 03:28N 43°06' E 005°53'0 0.0
2018-May-14 02:58N 43°06' E 005°53'0 0.0
2018-May-14 02:28N 43°06' E 005°53'0 0.0
2018-May-14 01:57N 43°06' E 005°53'0 0.0
2018-May-14 01:27N 43°06' E 005°53'0 0.0
2018-May-14 00:51N 43°06' E 005°53'0 0.0
2018-May-14 00:24N 43°06' E 005°53'0 0.0
2018-May-14 00:00N 43°06' E 005°53'0 0.0
2018-May-13 23:27N 43°06' E 005°53'0 0.0
2018-May-13 22:53N 43°06' E 005°53'0 0.0
2018-May-13 22:29N 43°06' E 005°53'0 0.0
2018-May-13 21:59N 43°06' E 005°53'0 0.0
2018-May-13 21:29N 43°06' E 005°53'0 0.0
2018-May-13 20:55N 43°06' E 005°53'0 0.0
2018-May-13 20:25N 43°06' E 005°53'0 0.0
2018-May-13 19:58N 43°06' E 005°53'0 0.0
2018-May-13 19:25N 43°06' E 005°53'0 0.0
2018-May-13 19:00N 43°06' E 005°53'0 0.0
2018-May-13 18:30N 43°06' E 005°53'0 0.0
2018-May-13 17:57N 43°06' E 005°53'0 0.0
2018-May-13 17:30N 43°06' E 005°53'0 0.0
2018-May-13 17:00N 43°06' E 005°53'0 0.0
2018-May-13 16:30N 43°06' E 005°53'0 0.0
2018-May-13 15:59N 43°06' E 005°53'0 0.0
2018-May-13 15:29N 43°06' E 005°53'0 0.0
2018-May-13 14:59N 43°06' E 005°53'0 0.0
2018-May-13 14:26N 43°06' E 005°53'0 0.0
2018-May-13 13:58N 43°06' E 005°53'0 0.0
2018-May-13 13:28N 43°06' E 005°53'0 0.0
2018-May-13 12:58N 43°06' E 005°53'1 1.4
2018-May-13 12:30N 43°06' E 005°54'2 0.3
2018-May-13 05:54N 43°05' E 005°56'3 6.9
2018-May-13 05:31N 43°06' E 005°53'0 0.0
2018-May-13 05:01N 43°06' E 005°53'0 0.0
2018-May-13 04:28N 43°06' E 005°53'0 0.0
2018-May-13 03:58N 43°06' E 005°53'0 0.0
2018-May-13 03:25N 43°06' E 005°53'0 0.0
2018-May-13 02:54N 43°06' E 005°53'0 0.0
2018-May-13 02:30N 43°06' E 005°53'0 0.0
2018-May-13 02:00N 43°06' E 005°53'0 0.0
2018-May-13 01:30N 43°06' E 005°53'0 0.0
2018-May-13 01:00N 43°06' E 005°53'0 0.0
2018-May-13 00:23N 43°06' E 005°53'0 0.0
2018-May-12 23:53N 43°06' E 005°53'0 0.0
2018-May-12 23:26N 43°06' E 005°53'0 0.0
2018-May-12 22:59N 43°06' E 005°53'0 0.0
2018-May-12 22:28N 43°06' E 005°53'0 0.0
2018-May-12 21:58N 43°06' E 005°53'0 0.0
2018-May-12 21:28N 43°06' E 005°53'0 0.0
2018-May-12 20:58N 43°06' E 005°53'0 0.0
2018-May-12 20:22N 43°06' E 005°53'0 0.0
2018-May-12 19:57N 43°06' E 005°53'0 0.0
2018-May-12 19:21N 43°06' E 005°53'0 0.0
2018-May-12 19:00N 43°06' E 005°53'0 0.0
2018-May-12 18:27N 43°06' E 005°53'0 0.0
2018-May-12 17:56N 43°06' E 005°53'0 0.0
2018-May-12 17:26N 43°06' E 005°53'0 0.0
2018-May-12 16:59N 43°06' E 005°53'0 0.0
2018-May-12 16:29N 43°06' E 005°53'0 0.0
2018-May-12 15:59N 43°06' E 005°53'0 0.0
2018-May-12 15:25N 43°06' E 005°53'0 0.0
2018-May-12 14:58N 43°06' E 005°53'0 0.0
2018-May-12 14:28N 43°06' E 005°53'0 0.0
2018-May-12 13:55N 43°06' E 005°53'0 0.0
2018-May-12 13:31N 43°06' E 005°53'2 3.8
2018-May-12 13:00N 43°05' E 005°55'1 0.0
2018-May-11 05:31N 43°05' E 005°57'0 9.8
2018-May-11 05:28N 43°05' E 005°56'3 5.0
2018-May-11 04:58N 43°06' E 005°53'0 0.0
2018-May-11 04:30N 43°06' E 005°53'0 0.0
2018-May-11 04:00N 43°06' E 005°53'0 0.0
2018-May-11 03:30N 43°06' E 005°53'0 0.0
2018-May-11 02:56N 43°06' E 005°53'0 0.0
2018-May-11 02:29N 43°06' E 005°53'0 0.0
2018-May-11 01:59N 43°06' E 005°53'0 0.0
2018-May-11 01:20N 43°06' E 005°53'0 0.0
2018-May-11 00:58N 43°06' E 005°53'0 0.0
2018-May-11 00:25N 43°06' E 005°53'0 0.0
2018-May-10 23:55N 43°06' E 005°53'0 0.0
2018-May-10 23:25N 43°06' E 005°53'0 0.0
2018-May-10 22:55N 43°06' E 005°53'0 0.0
2018-May-10 22:24N 43°06' E 005°53'0 0.0
2018-May-10 21:57N 43°06' E 005°53'0 0.0
2018-May-10 21:30N 43°06' E 005°53'0 0.0
2018-May-10 21:00N 43°06' E 005°53'0 0.0
2018-May-10 20:30N 43°06' E 005°53'0 0.0
2018-May-10 19:56N 43°06' E 005°53'0 0.0
2018-May-10 19:29N 43°06' E 005°53'0 0.0
2018-May-10 18:59N 43°06' E 005°53'0 0.0
2018-May-10 18:29N 43°06' E 005°53'0 0.0
2018-May-10 17:58N 43°06' E 005°53'  
Track history (hours):
 
Tides and Currents Weather Stations Pressure Air Temp Water Temp Dewpoint Dewpoint Depression Visibility Wind Speed Wind Dir Waves Ship Positions

Oceanographic research ship L'Europe (France)

Detailed information on ship capabilities available from University of Delaware's Ocean Information Center.

Last reported at 2018-May-20 17:30 UTC. Time now 2018-May-20 17:42 UTC.
Position N 43°01' E 009°16'.

Length 30 m; beam 11 m.

Type: . MMSI: 227403000.

Date/timePositionNaut miles runAvg speedWind from/ knotsBaromVisibWave heightAir tempDewpointWater temp
2018-May-20 17:30N 43°01' E 009°16'510.5
2018-May-20 17:00N 43°01' E 009°23'4 9.0
2018-May-20 16:30N 42°59' E 009°29'510.1
2018-May-20 16:00N 42°54' E 009°29'5 9.7
2018-May-20 15:30N 42°49' E 009°30'4 8.9
2018-May-20 15:00N 42°45' E 009°29'2 0.1
2018-May-19 16:12N 42°42' E 009°28'2 8.9
2018-May-19 16:00N 42°44' E 009°29'5 9.4
2018-May-19 15:30N 42°49' E 009°30'2 3.8
2018-May-19 15:00N 42°50' E 009°31'1 2.9
2018-May-19 14:30N 42°52' E 009°31'2 3.0
2018-May-19 14:00N 42°53' E 009°31'0 0.4
2018-May-19 13:30N 42°53' E 009°32'1 3.0
2018-May-19 13:00N 42°52' E 009°31'1 2.9
2018-May-19 12:30N 42°51' E 009°31'1 2.6
2018-May-19 12:00N 42°49' E 009°31'2 3.1
2018-May-19 11:30N 42°48' E 009°31'1 1.5
2018-May-19 11:00N 42°48' E 009°32'2 3.0
2018-May-19 10:30N 42°50' E 009°32'8 3.4
2018-May-19 08:01N 42°58' E 009°33'0 4.5
2018-May-19 08:00N 42°58' E 009°33'5 9.1
2018-May-19 07:29N 42°54' E 009°32'5 9.4
2018-May-19 07:00N 42°49' E 009°31'5 9.1
2018-May-19 06:30N 42°45' E 009°29'2 0.1
2018-May-18 16:33N 42°43' E 009°28'410.0
2018-May-18 16:10N 42°47' E 009°30'210.3
2018-May-18 16:00N 42°48' E 009°31'3 4.3
2018-May-18 15:23N 42°51' E 009°31'1 3.5
2018-May-18 14:59N 42°52' E 009°31'1 1.6
2018-May-18 14:30N 42°52' E 009°31'6 1.6
2018-May-18 10:58N 42°57' E 009°33'1 2.4
2018-May-18 10:29N 42°56' E 009°32'3 2.8
2018-May-18 09:18N 42°53' E 009°31'1 3.0
2018-May-18 08:52N 42°51' E 009°31'1 2.4
2018-May-18 08:17N 42°50' E 009°32'158 4.1
2018-May-16 17:25N 43°05' E 005°56'3 5.4
2018-May-16 16:55N 43°06' E 005°53'0 0.0
2018-May-16 16:28N 43°06' E 005°53'0 0.0
2018-May-16 15:48N 43°06' E 005°53'0 0.0
2018-May-16 15:30N 43°06' E 005°53'0 0.0
2018-May-16 15:00N 43°06' E 005°53'0 0.0
2018-May-16 14:30N 43°06' E 005°53'0 0.0
2018-May-16 14:00N 43°06' E 005°53'0 0.0
2018-May-16 13:30N 43°06' E 005°53'0 0.0
2018-May-16 12:59N 43°06' E 005°53'0 0.0
2018-May-16 12:29N 43°06' E 005°53'0 0.0
2018-May-16 11:59N 43°06' E 005°53'0 0.0
2018-May-16 11:22N 43°06' E 005°53'0 0.0
2018-May-16 10:58N 43°06' E 005°53'0 0.0
2018-May-16 10:25N 43°06' E 005°53'0 0.0
2018-May-16 09:58N 43°06' E 005°53'0 0.0
2018-May-16 09:28N 43°06' E 005°53'0 0.0
2018-May-16 08:57N 43°06' E 005°53'0 0.0
2018-May-16 08:30N 43°06' E 005°53'0 0.0
2018-May-16 08:00N 43°06' E 005°53'0 0.0
2018-May-16 07:30N 43°06' E 005°53'0 0.0
2018-May-16 06:59N 43°06' E 005°53'0 0.0
2018-May-16 06:26N 43°06' E 005°53'0 0.0
2018-May-16 05:56N 43°06' E 005°53'0 0.0
2018-May-16 05:29N 43°06' E 005°53'0 0.0
2018-May-16 04:50N 43°06' E 005°53'0 0.0
2018-May-16 04:25N 43°06' E 005°53'0 0.0
2018-May-16 03:56N 43°06' E 005°53'0 0.0
2018-May-16 03:25N 43°06' E 005°53'0 0.0
2018-May-16 02:58N 43°06' E 005°53'0 0.0
2018-May-16 02:28N 43°06' E 005°53'0 0.0
2018-May-16 02:00N 43°06' E 005°53'0 0.0
2018-May-16 01:27N 43°06' E 005°53'0 0.0
2018-May-16 01:00N 43°06' E 005°53'0 0.0
2018-May-16 00:30N 43°06' E 005°53'0 0.0
2018-May-15 23:56N 43°06' E 005°53'0 0.0
2018-May-15 23:29N 43°06' E 005°53'0 0.0
2018-May-15 22:59N 43°06' E 005°53'0 0.0
2018-May-15 22:26N 43°06' E 005°53'0 0.0
2018-May-15 21:59N 43°06' E 005°53'0 0.0
2018-May-15 21:29N 43°06' E 005°53'0 0.0
2018-May-15 20:46N 43°06' E 005°53'0 0.0
2018-May-15 20:28N 43°06' E 005°53'0 0.0
2018-May-15 19:52N 43°06' E 005°53'0 0.0
2018-May-15 19:25N 43°06' E 005°53'0 0.0
2018-May-15 19:00N 43°06' E 005°53'0 0.0
2018-May-15 18:27N 43°06' E 005°53'0 0.0
2018-May-15 18:00N 43°06' E 005°53'0 0.0
2018-May-15 17:27N 43°06' E 005°53'0 0.0
2018-May-15 16:59N 43°06' E 005°53'0 0.0
2018-May-15 16:29N 43°06' E 005°53'0 0.0
2018-May-15 15:56N 43°06' E 005°53'0 0.0
2018-May-15 15:29N 43°06' E 005°53'0 0.0
2018-May-15 14:56N 43°06' E 005°53'0 0.0
2018-May-15 14:25N 43°06' E 005°53'0 0.0
2018-May-15 13:58N 43°06' E 005°53'0 0.0
2018-May-15 13:25N 43°06' E 005°53'0 0.0
2018-May-15 12:55N 43°06' E 005°53'0 0.0
2018-May-15 12:30N 43°06' E 005°53'0 0.0
2018-May-15 11:57N 43°06' E 005°53'0 0.0
2018-May-15 11:30N 43°06' E 005°53'0 0.0
2018-May-15 11:00N 43°06' E 005°53'0 0.0
2018-May-15 10:30N 43°06' E 005°53'0 0.0
2018-May-15 09:59N 43°06' E 005°53'0 0.0
2018-May-15 09:29N 43°06' E 005°53'0 0.0
2018-May-15 08:59N 43°06' E 005°53'0 0.0
2018-May-15 08:26N 43°06' E 005°53'0 0.0
2018-May-15 07:59N 43°06' E 005°53'0 0.0
2018-May-15 07:28N 43°06' E 005°53'0 0.0
2018-May-15 06:58N 43°06' E 005°53'0 0.0
2018-May-15 06:28N 43°06' E 005°53'0 0.0
2018-May-15 05:52N 43°06' E 005°53'0 0.0
2018-May-15 05:28N 43°06' E 005°53'0 0.0
2018-May-15 05:00N 43°06' E 005°53'0 0.0
2018-May-15 04:28N 43°06' E 005°53'0 0.0
2018-May-15 03:57N 43°06' E 005°53'0 0.0
2018-May-15 03:30N 43°06' E 005°53'0 0.0
2018-May-15 02:59N 43°06' E 005°53'0 0.0
2018-May-15 02:29N 43°06' E 005°53'0 0.0
2018-May-15 01:56N 43°06' E 005°53'0 0.0
2018-May-15 01:29N 43°06' E 005°53'0 0.0
2018-May-15 00:55N 43°06' E 005°53'0 0.0
2018-May-15 00:28N 43°06' E 005°53'0 0.0
2018-May-14 23:55N 43°06' E 005°53'0 0.0
2018-May-14 23:28N 43°06' E 005°53'0 0.0
2018-May-14 22:58N 43°06' E 005°53'0 0.0
2018-May-14 22:30N 43°06' E 005°53'0 0.0
2018-May-14 22:00N 43°06' E 005°53'0 0.0
2018-May-14 21:30N 43°06' E 005°53'0 0.0
2018-May-14 21:00N 43°06' E 005°53'0 0.0
2018-May-14 20:29N 43°06' E 005°53'0 0.0
2018-May-14 19:53N 43°06' E 005°53'0 0.0
2018-May-14 19:29N 43°06' E 005°53'0 0.0
2018-May-14 18:56N 43°06' E 005°53'0 0.0
2018-May-14 18:29N 43°06' E 005°53'0 0.0
2018-May-14 17:57N 43°06' E 005°53'0 0.0
2018-May-14 17:25N 43°06' E 005°53'0 0.0
2018-May-14 16:58N 43°06' E 005°53'0 0.0
2018-May-14 16:28N 43°06' E 005°53'0 0.0
2018-May-14 15:58N 43°06' E 005°53'0 0.0
2018-May-14 15:27N 43°06' E 005°53'0 0.0
2018-May-14 14:57N 43°06' E 005°53'0 0.0
2018-May-14 14:30N 43°06' E 005°53'0 0.0
2018-May-14 13:57N 43°06' E 005°53'0 0.0
2018-May-14 13:30N 43°06' E 005°53'0 0.0
2018-May-14 12:56N 43°06' E 005°53'0 0.0
2018-May-14 12:26N 43°06' E 005°53'0 0.0
2018-May-14 11:50N 43°06' E 005°53'0 0.0
2018-May-14 11:26N 43°06' E 005°53'0 0.0
2018-May-14 10:49N 43°06' E 005°53'0 0.0
2018-May-14 10:28N 43°06' E 005°53'0 0.0
2018-May-14 09:49N 43°06' E 005°53'0 0.0
2018-May-14 09:25N 43°06' E 005°53'0 0.0
2018-May-14 08:55N 43°06' E 005°53'0 0.0
2018-May-14 08:30N 43°06' E 005°53'0 0.0
2018-May-14 08:00N 43°06' E 005°53'0 0.0
2018-May-14 07:30N 43°06' E 005°53'0 0.0
2018-May-14 07:00N 43°06' E 005°53'0 0.0
2018-May-14 06:26N 43°06' E 005°53'0 0.0
2018-May-14 05:59N 43°06' E 005°53'0 0.0
2018-May-14 05:29N 43°06' E 005°53'0 0.0
2018-May-14 04:56N 43°06' E 005°53'0 0.0
2018-May-14 04:29N 43°06' E 005°53'0 0.0
2018-May-14 03:58N 43°06' E 005°53'0 0.0
2018-May-14 03:28N 43°06' E 005°53'0 0.0
2018-May-14 02:58N 43°06' E 005°53'0 0.0
2018-May-14 02:28N 43°06' E 005°53'0 0.0
2018-May-14 01:57N 43°06' E 005°53'0 0.0
2018-May-14 01:27N 43°06' E 005°53'0 0.0
2018-May-14 00:51N 43°06' E 005°53'0 0.0
2018-May-14 00:24N 43°06' E 005°53'0 0.0
2018-May-14 00:00N 43°06' E 005°53'0 0.0
2018-May-13 23:27N 43°06' E 005°53'0 0.0
2018-May-13 22:53N 43°06' E 005°53'0 0.0
2018-May-13 22:29N 43°06' E 005°53'0 0.0
2018-May-13 21:59N 43°06' E 005°53'0 0.0
2018-May-13 21:29N 43°06' E 005°53'0 0.0
2018-May-13 20:55N 43°06' E 005°53'0 0.0
2018-May-13 20:25N 43°06' E 005°53'0 0.0
2018-May-13 19:58N 43°06' E 005°53'0 0.0
2018-May-13 19:25N 43°06' E 005°53'0 0.0
2018-May-13 19:00N 43°06' E 005°53'0 0.0
2018-May-13 18:30N 43°06' E 005°53'0 0.0
2018-May-13 17:57N 43°06' E 005°53'0 0.0
2018-May-13 17:30N 43°06' E 005°53'0 0.0
2018-May-13 17:00N 43°06' E 005°53'0 0.0
2018-May-13 16:30N 43°06' E 005°53'0 0.0
2018-May-13 15:59N 43°06' E 005°53'0 0.0
2018-May-13 15:29N 43°06' E 005°53'0 0.0
2018-May-13 14:59N 43°06' E 005°53'0 0.0
2018-May-13 14:26N 43°06' E 005°53'0 0.0
2018-May-13 13:58N 43°06' E 005°53'0 0.0
2018-May-13 13:28N 43°06' E 005°53'0 0.0
2018-May-13 12:58N 43°06' E 005°53'1 1.4
2018-May-13 12:30N 43°06' E 005°54'2 0.3
2018-May-13 05:54N 43°05' E 005°56'3 6.9
2018-May-13 05:31N 43°06' E 005°53'0 0.0
2018-May-13 05:01N 43°06' E 005°53'0 0.0
2018-May-13 04:28N 43°06' E 005°53'0 0.0
2018-May-13 03:58N 43°06' E 005°53'0 0.0
2018-May-13 03:25N 43°06' E 005°53'0 0.0
2018-May-13 02:54N 43°06' E 005°53'0 0.0
2018-May-13 02:30N 43°06' E 005°53'0 0.0
2018-May-13 02:00N 43°06' E 005°53'0 0.0
2018-May-13 01:30N 43°06' E 005°53'0 0.0
2018-May-13 01:00N 43°06' E 005°53'0 0.0
2018-May-13 00:23N 43°06' E 005°53'0 0.0
2018-May-12 23:53N 43°06' E 005°53'0 0.0
2018-May-12 23:26N 43°06' E 005°53'0 0.0
2018-May-12 22:59N 43°06' E 005°53'0 0.0
2018-May-12 22:28N 43°06' E 005°53'0 0.0
2018-May-12 21:58N 43°06' E 005°53'0 0.0
2018-May-12 21:28N 43°06' E 005°53'0 0.0
2018-May-12 20:58N 43°06' E 005°53'0 0.0
2018-May-12 20:22N 43°06' E 005°53'0 0.0
2018-May-12 19:57N 43°06' E 005°53'0 0.0
2018-May-12 19:21N 43°06' E 005°53'0 0.0
2018-May-12 19:00N 43°06' E 005°53'0 0.0
2018-May-12 18:27N 43°06' E 005°53'0 0.0
2018-May-12 17:56N 43°06' E 005°53'0 0.0
2018-May-12 17:26N 43°06' E 005°53'0 0.0
2018-May-12 16:59N 43°06' E 005°53'0 0.0
2018-May-12 16:29N 43°06' E 005°53'0 0.0
2018-May-12 15:59N 43°06' E 005°53'0 0.0
2018-May-12 15:25N 43°06' E 005°53'0 0.0
2018-May-12 14:58N 43°06' E 005°53'0 0.0
2018-May-12 14:28N 43°06' E 005°53'0 0.0
2018-May-12 13:55N 43°06' E 005°53'0 0.0
2018-May-12 13:31N 43°06' E 005°53'2 3.8
2018-May-12 13:00N 43°05' E 005°55'1 0.0
2018-May-11 05:31N 43°05' E 005°57'0 9.8
2018-May-11 05:28N 43°05' E 005°56'3 5.0
2018-May-11 04:58N 43°06' E 005°53'0 0.0
2018-May-11 04:30N 43°06' E 005°53'0 0.0
2018-May-11 04:00N 43°06' E 005°53'0 0.0
2018-May-11 03:30N 43°06' E 005°53'0 0.0
2018-May-11 02:56N 43°06' E 005°53'0 0.0
2018-May-11 02:29N 43°06' E 005°53'0 0.0
2018-May-11 01:59N 43°06' E 005°53'0 0.0
2018-May-11 01:20N 43°06' E 005°53'0 0.0
2018-May-11 00:58N 43°06' E 005°53'0 0.0
2018-May-11 00:25N 43°06' E 005°53'0 0.0
2018-May-10 23:55N 43°06' E 005°53'0 0.0
2018-May-10 23:25N 43°06' E 005°53'0 0.0
2018-May-10 22:55N 43°06' E 005°53'0 0.0
2018-May-10 22:24N 43°06' E 005°53'0 0.0
2018-May-10 21:57N 43°06' E 005°53'0 0.0
2018-May-10 21:30N 43°06' E 005°53'0 0.0
2018-May-10 21:00N 43°06' E 005°53'0 0.0
2018-May-10 20:30N 43°06' E 005°53'0 0.0
2018-May-10 19:56N 43°06' E 005°53'0 0.0
2018-May-10 19:29N 43°06' E 005°53'0 0.0
2018-May-10 18:59N 43°06' E 005°53'0 0.0
2018-May-10 18:29N 43°06' E 005°53'0 0.0
2018-May-10 17:58N 43°06' E 005°53'  

Dump ship's entire track history